Skip Navigation Links
NOAA logo - Click to go to the NOAA homepage
NOAA's National Weather Service
Alaska Aviation Weather Unit
  NWS logo - Click to go to the NWS homepage
Left Navbar Graphic     19 AKDT = 03 GMT

   
NOAA is celebrating 200 years of science, service, and stewardship. Visit the NOAA 200th celebration Web site to learn more.
USA.gov is the U.S. Government's official Web portal to all Federal, state and local government Web resources and services.
Facebook
NWS on Facebook

Important Change Regarding the AAWU Web Presence

 

Over the last several months, the AAWU has been working to navigate its webpages to a nationally supported server. Security, as well as other needs, have necessitated the change.  In the process, we have made an effort to enhance the functionality of our website, as well as some of our products. As of June 20, 2017, aawu.arh.noaa.gov will be discontinued. The new AAWU web address is weather.gov/aawu. It is now live and will run in-parallel with the old site until it is discontinued. Please send any feedback or questions regarding the new webpages to nws.ar.aawu.webauthors@noaa.gov.  Thank you for your patience during this time of transition.
AAWU Home :: Display TAF Add Bookmark
TAF PADU 250103Z 2501/2524 24014G25KT P6SM -SHRA SCT025 BKN035
      TEMPO 2501/2505 27011KT BKN025
     FM251500 24010KT P6SM -SHRA SCT010 OVC025
     FM252000 19008KT P6SM -SHRA SCT025 OVC050=
SPECI PADU 242108Z 23019G26KT 10SM -RA SCT029 BKN037 OVC055 07/01 A3011
     RMK AO2 PK WND 22028/2058 P0000=

SPECI PADU 242127Z 25011G30KT 220V280 10SM -RA BKN029 BKN037 06/01 A3012
     RMK AO2 PK WND 21030/2118 MH P0000=

METAR PADU 242156Z 22015G27KT 7SM -RA BKN029 BKN037 06/01 A3012 RMK
 AO2 PK WND 21030/2118 SLP199 MH P0000 T00610006=

METAR PADU 242256Z 24013G16KT 10SM -RA BKN021 BKN032 OVC039 06/02 A3013
     RMK AO2 SLP202 MH P0001 T00610017=

SPECI PADU 242310Z 24016G22KT 10SM -RA FEW019 BKN037 BKN046 06/02 A3014
     RMK AO2 MH P0001=

METAR PADU 242356Z 22014G18KT 10SM FEW020 BKN040 07/01 A3014 RMK AO2
     RAE34 SLP208 VCSH W-NW MH P0001 60007 T00670006 10067 20050
     51015=

METAR PADU 250056Z 27008KT 10SM -RA BKN027 BKN036 06/02 A3016 RMK AO2
     RAB2358 SLP214 MH P0002 T00560022=

METAR PADU 250156Z 25013KT 10SM -RA SCT027 BKN036 BKN045 06/02 A3018 RMK
     AO2 RAE08B25 SLP219 MH P0000 T00560017=

METAR PADU 250256Z 26013G17KT 10SM BKN044 OVC055 07/01 A3018 RMK AO2
     RAE15 SLP221 P0000 60002 T00670011 51014=


NOAA's National Weather Service
Alaska Aviation Weather Unit
6930 Sand Lake Road
Anchorage, AK 99502-1845
Disclaimer
Credits
Glossary
Privacy Policy
About Us
Career Opportunities
Contact AAWU Internet Services Site last modified: April, 17th 2012